Terminal Aerodrome Forecast
Issued by NWS Amarillo, TX

Home | Current Version | Previous Version | Text Only | Print | Product List | Glossary On
Versions: 1 2 3 4 5 6 7 8 9 10 11 12 13 14 15 16 17 18 19 20 21 22 23 24 25 26
000
FTUS44 KAMA 210500
TAFAMA
TAF
KAMA 210520Z 2106/2206 12010KT P6SM VCTS SCT040CB BKN080
      TEMPO 2106/2108 VRB30KT 4SM TSRA BR BKN040CB
     FM210800 15010KT P6SM VCSH OVC050
     FM211000 07007KT P6SM BKN200
     FM212100 16015KT P6SM SCT090=

USA.gov is the U.S. government's official web portal to all federal, state and local government web resources and services.